createdAt,value
2022-11-23T00:01:55.849Z,98971.00
2022-11-23T00:04:25.870Z,98956.00
2022-11-23T00:06:56.151Z,98976.00
2022-11-23T00:09:25.058Z,98982.00
2022-11-23T00:11:54.203Z,98968.00
2022-11-23T00:14:22.964Z,98979.00
2022-11-23T00:16:51.655Z,98980.00
2022-11-23T00:19:20.339Z,98975.00
2022-11-23T00:21:49.052Z,98987.00
2022-11-23T00:24:19.555Z,98978.00
2022-11-23T00:26:48.341Z,98971.00
2022-11-23T00:29:17.037Z,98971.00
2022-11-23T00:31:46.101Z,98977.00
2022-11-23T00:34:14.957Z,98973.00
2022-11-23T00:36:43.736Z,98981.00
2022-11-23T00:39:12.660Z,98980.00
2022-11-23T00:41:43.002Z,98979.00
2022-11-23T00:44:11.918Z,98983.00
2022-11-23T00:46:40.669Z,98973.00
2022-11-23T00:49:10.075Z,98970.00
2022-11-23T00:51:39.384Z,98969.00
2022-11-23T00:54:08.463Z,98977.00
2022-11-23T00:56:37.449Z,98973.00
2022-11-23T00:59:07.564Z,98984.00
2022-11-23T01:01:38.062Z,98980.00
2022-11-23T01:04:08.746Z,98984.00
2022-11-23T01:06:39.510Z,98978.00
2022-11-23T01:09:10.083Z,98975.00
2022-11-23T01:11:38.786Z,98984.00
2022-11-23T01:14:08.909Z,98971.00
2022-11-23T01:16:39.944Z,98984.00
2022-11-23T01:19:11.583Z,98992.00
2022-11-23T01:21:40.671Z,98987.00
2022-11-23T01:24:10.830Z,98982.00
2022-11-23T01:26:39.900Z,98985.00
2022-11-23T01:29:10.250Z,98984.00
2022-11-23T01:31:43.176Z,98979.00
2022-11-23T01:34:15.944Z,98975.00
2022-11-23T01:36:45.720Z,98981.00
2022-11-23T01:39:15.182Z,98978.00
2022-11-23T01:41:47.004Z,98976.00
2022-11-23T01:44:29.857Z,98982.00
2022-11-23T01:47:00.908Z,98978.00
2022-11-23T01:49:34.386Z,98968.00
2022-11-23T01:52:08.319Z,98979.00
2022-11-23T01:54:42.215Z,98982.00
2022-11-23T01:57:15.393Z,98977.00
2022-11-23T01:59:50.325Z,98971.00
2022-11-23T02:02:21.438Z,98967.00
2022-11-23T02:04:55.668Z,98973.00
2022-11-23T02:07:30.242Z,98977.00
2022-11-23T02:10:05.492Z,98978.00
2022-11-23T02:12:42.221Z,98975.00
2022-11-23T02:15:17.812Z,98974.00
2022-11-23T02:18:01.450Z,98975.00
2022-11-23T02:20:45.668Z,98972.00
2022-11-23T02:23:30.355Z,98984.00
2022-11-23T02:26:13.526Z,98980.00
2022-11-23T02:28:47.998Z,98986.00
2022-11-23T02:31:23.729Z,98992.00
2022-11-23T02:33:53.406Z,98992.00
2022-11-23T02:36:42.143Z,98988.00
2022-11-23T02:39:14.451Z,98988.00
2022-11-23T02:41:48.647Z,98989.00
2022-11-23T02:44:31.842Z,98997.00
2022-11-23T02:47:03.908Z,98999.00
2022-11-23T02:49:33.188Z,98994.00
2022-11-23T02:52:05.002Z,98999.00
2022-11-23T02:54:36.808Z,98995.00
2022-11-23T02:57:11.664Z,98994.00
2022-11-23T02:59:40.924Z,99008.00
2022-11-23T03:02:09.900Z,99002.00
2022-11-23T03:04:38.646Z,99006.00
2022-11-23T03:07:07.608Z,99009.00
2022-11-23T03:09:36.416Z,98995.00
2022-11-23T03:12:07.324Z,98998.00
2022-11-23T03:14:38.723Z,99000.00
2022-11-23T03:17:07.567Z,99007.00
2022-11-23T03:19:36.376Z,99005.00
2022-11-23T03:22:05.912Z,99012.00
2022-11-23T03:24:34.832Z,99014.00
2022-11-23T03:27:06.195Z,99011.00
2022-11-23T03:29:38.079Z,99013.00
2022-11-23T03:32:07.408Z,99024.00
2022-11-23T03:34:36.357Z,99020.00
2022-11-23T03:37:07.393Z,99020.00
2022-11-23T03:39:36.659Z,99025.00
2022-11-23T03:42:07.469Z,99023.00
2022-11-23T03:44:36.259Z,99012.00
2022-11-23T03:47:05.002Z,99029.00
2022-11-23T03:49:33.979Z,99013.00
2022-11-23T03:52:03.029Z,99018.00
2022-11-23T03:54:31.678Z,99032.00
2022-11-23T03:57:00.696Z,99025.00
2022-11-23T03:59:31.401Z,99024.00
2022-11-23T04:02:00.551Z,99015.00
2022-11-23T04:04:29.234Z,99016.00
2022-11-23T04:06:57.937Z,99022.00
2022-11-23T04:09:26.830Z,99027.00
2022-11-23T04:11:55.466Z,99014.00
2022-11-23T04:14:24.326Z,99021.00
2022-11-23T04:16:54.494Z,99017.00
2022-11-23T04:19:23.433Z,99017.00
2022-11-23T04:21:52.136Z,99010.00
2022-11-23T04:24:20.857Z,99011.00
2022-11-23T04:26:50.056Z,99010.00
2022-11-23T04:29:18.872Z,99023.00
2022-11-23T04:31:47.923Z,99022.00
2022-11-23T04:34:18.947Z,99017.00
2022-11-23T04:42:30.222Z,99019.00
2022-11-23T04:44:59.086Z,99024.00
2022-11-23T04:47:28.083Z,99027.00
2022-11-23T04:49:58.088Z,99028.00
2022-11-23T04:52:26.808Z,99011.00
2022-11-23T04:54:55.642Z,99014.00
2022-11-23T04:57:24.278Z,99024.00
2022-11-23T04:59:53.202Z,99031.00
2022-11-23T05:02:21.932Z,99018.00
2022-11-23T05:04:50.610Z,99011.00
2022-11-23T05:07:20.925Z,99014.00
2022-11-23T05:09:49.895Z,99027.00
2022-11-23T05:12:18.534Z,99015.00
2022-11-23T05:14:47.313Z,99016.00
2022-11-23T05:17:16.040Z,99028.00
2022-11-23T05:19:46.044Z,99012.00
2022-11-23T05:22:14.971Z,99015.00
2022-11-23T05:24:45.447Z,99022.00
2022-11-23T05:27:14.404Z,99020.00
2022-11-23T05:29:43.268Z,99029.00
2022-11-23T05:32:12.643Z,99025.00
2022-11-23T05:34:41.548Z,99025.00
2022-11-23T05:37:10.861Z,99021.00
2022-11-23T05:39:41.846Z,99026.00
2022-11-23T05:42:12.347Z,99025.00
2022-11-23T05:44:41.087Z,99026.00
2022-11-23T05:47:09.904Z,99036.00
2022-11-23T05:49:38.729Z,99027.00
2022-11-23T05:52:07.708Z,99025.00
2022-11-23T05:54:36.481Z,99022.00
2022-11-23T05:57:05.150Z,99030.00
2022-11-23T05:59:35.606Z,99031.00
2022-11-23T06:02:04.290Z,99033.00
2022-11-23T06:04:32.986Z,99040.00
2022-11-23T06:07:02.414Z,99034.00
2022-11-23T06:09:31.770Z,99036.00
2022-11-23T06:12:00.877Z,99041.00
2022-11-23T06:14:29.957Z,99049.00
2022-11-23T06:17:00.258Z,99041.00
2022-11-23T06:19:30.526Z,99044.00
2022-11-23T06:21:59.779Z,99040.00
2022-11-23T06:24:28.872Z,99053.00
2022-11-23T06:27:03.884Z,99055.00
2022-11-23T06:29:32.997Z,99061.00
2022-11-23T06:32:03.690Z,99071.00
2022-11-23T06:34:33.091Z,99074.00
2022-11-23T06:37:01.930Z,99070.00
2022-11-23T06:39:31.181Z,99070.00
2022-11-23T06:42:16.802Z,99076.00
2022-11-23T06:44:50.077Z,99067.00
2022-11-23T06:47:25.696Z,99070.00
2022-11-23T06:50:11.544Z,99073.00
2022-11-23T06:52:42.804Z,99071.00
2022-11-23T06:55:12.278Z,99080.00
2022-11-23T06:57:43.178Z,99081.00
2022-11-23T07:00:17.719Z,99081.00
2022-11-23T07:02:57.380Z,99079.00
2022-11-23T07:05:33.462Z,99090.00
2022-11-23T07:11:18.637Z,99084.00
2022-11-23T07:14:09.127Z,99085.00
2022-11-23T07:16:47.029Z,99091.00
2022-11-23T07:19:31.180Z,99087.00
2022-11-23T07:22:01.646Z,99087.00
2022-11-23T07:24:39.559Z,99087.00
2022-11-23T07:27:11.203Z,99078.00
2022-11-23T07:29:40.471Z,99092.00
2022-11-23T07:32:09.486Z,99088.00
2022-11-23T07:34:40.115Z,99082.00
2022-11-23T07:37:10.169Z,99093.00
2022-11-23T07:39:57.021Z,99083.00
2022-11-23T07:42:39.777Z,99080.00
2022-11-23T07:45:14.396Z,99081.00
2022-11-23T07:47:44.363Z,99087.00
2022-11-23T07:50:16.803Z,99093.00
2022-11-23T07:52:48.329Z,99101.00
2022-11-23T07:55:17.859Z,99086.00
2022-11-23T07:57:47.710Z,99090.00
2022-11-23T08:00:20.623Z,99089.00
2022-11-23T08:03:19.330Z,99086.00
2022-11-23T08:05:41.661Z,99100.00
2022-11-23T08:08:12.116Z,99102.00
2022-11-23T08:10:46.155Z,99097.00
2022-11-23T08:13:20.502Z,99105.00
2022-11-23T08:15:55.741Z,99097.00
2022-11-23T08:18:25.455Z,99102.00
2022-11-23T08:20:56.007Z,99095.00
2022-11-23T08:23:25.744Z,99098.00
2022-11-23T08:25:54.507Z,99100.00
2022-11-23T08:28:23.741Z,99102.00
2022-11-23T08:30:56.461Z,99100.00
2022-11-23T08:33:26.013Z,99105.00
2022-11-23T08:35:56.803Z,99109.00
2022-11-23T08:38:29.382Z,99100.00
2022-11-23T08:41:01.588Z,99105.00
2022-11-23T08:43:32.749Z,99110.00
2022-11-23T08:46:06.754Z,99098.00
2022-11-23T08:48:37.460Z,99107.00
2022-11-23T08:51:09.362Z,99106.00
2022-11-23T08:53:44.156Z,99110.00
2022-11-23T08:56:17.071Z,99111.00
2022-11-23T08:58:47.398Z,99107.00
2022-11-23T09:01:18.319Z,99111.00
2022-11-23T09:03:50.311Z,99108.00
2022-11-23T09:06:30.508Z,99113.00
2022-11-23T09:09:00.174Z,99111.00
2022-11-23T09:11:30.055Z,99103.00
2022-11-23T09:13:59.220Z,99116.00
2022-11-23T09:16:33.877Z,99122.00
2022-11-23T09:19:03.705Z,99119.00
2022-11-23T09:21:37.546Z,99111.00
2022-11-23T09:24:08.196Z,99120.00
2022-11-23T09:26:37.872Z,99125.00
2022-11-23T09:29:08.397Z,99116.00
2022-11-23T09:31:38.194Z,99104.00
2022-11-23T09:34:07.251Z,99111.00
2022-11-23T09:36:37.575Z,99109.00
2022-11-23T09:39:06.880Z,99105.00
2022-11-23T09:42:03.383Z,99105.00
2022-11-23T09:44:44.702Z,99098.00
2022-11-23T09:47:33.392Z,99108.00
2022-11-23T09:50:12.133Z,99098.00
2022-11-23T09:52:47.159Z,99098.00
2022-11-23T09:55:21.641Z,99103.00
2022-11-23T09:57:53.343Z,99100.00
2022-11-23T10:00:24.896Z,99096.00
2022-11-23T10:02:53.694Z,99097.00
2022-11-23T10:05:27.387Z,99101.00
2022-11-23T10:08:07.668Z,99102.00
2022-11-23T10:10:44.516Z,99095.00
2022-11-23T10:13:28.242Z,99094.00
2022-11-23T10:16:19.433Z,99090.00
2022-11-23T10:18:57.555Z,99087.00
2022-11-23T10:21:36.329Z,99084.00
2022-11-23T10:24:20.181Z,99097.00
2022-11-23T10:26:51.754Z,99091.00
2022-11-23T10:29:30.135Z,99078.00
2022-11-23T10:32:00.958Z,99087.00
2022-11-23T10:34:48.093Z,99084.00
2022-11-23T10:37:18.852Z,99089.00
2022-11-23T10:39:49.063Z,99083.00
2022-11-23T10:42:25.875Z,99093.00
2022-11-23T10:44:56.901Z,99092.00
2022-11-23T10:47:38.807Z,99095.00
2022-11-23T10:50:25.344Z,99079.00
2022-11-23T10:52:57.077Z,99076.00
2022-11-23T10:55:32.818Z,99073.00
2022-11-23T10:58:02.836Z,99079.00
2022-11-23T11:00:34.969Z,99075.00
2022-11-23T11:03:23.101Z,99072.00
2022-11-23T11:06:08.568Z,99064.00
2022-11-23T11:08:49.123Z,99066.00
2022-11-23T11:11:27.961Z,99061.00
2022-11-23T11:14:08.014Z,99056.00
2022-11-23T11:16:38.993Z,99063.00
2022-11-23T11:19:27.484Z,99047.00
2022-11-23T11:22:00.885Z,99060.00
2022-11-23T11:24:37.528Z,99050.00
2022-11-23T11:27:14.527Z,99050.00
2022-11-23T11:29:52.232Z,99039.00
2022-11-23T11:32:28.270Z,99041.00
2022-11-23T11:35:04.933Z,99040.00
2022-11-23T11:37:40.804Z,99039.00
2022-11-23T11:40:17.923Z,99040.00
2022-11-23T11:42:53.838Z,99050.00
2022-11-23T11:45:26.988Z,99056.00
2022-11-23T11:48:01.850Z,99054.00
2022-11-23T11:50:34.417Z,99041.00
2022-11-23T11:53:10.165Z,99049.00
2022-11-23T11:55:49.993Z,99054.00
2022-11-23T11:58:23.011Z,99057.00
2022-11-23T12:00:56.486Z,99066.00
2022-11-23T12:03:38.989Z,99059.00
2022-11-23T12:06:14.384Z,99063.00
2022-11-23T12:08:48.936Z,99062.00
2022-11-23T12:11:21.194Z,99056.00
2022-11-23T12:13:53.824Z,99055.00
2022-11-23T12:16:34.309Z,99053.00
2022-11-23T12:19:21.731Z,99055.00
2022-11-23T12:22:19.684Z,99054.00
2022-11-23T12:25:11.763Z,99055.00
2022-11-23T12:27:58.154Z,99055.00
2022-11-23T12:30:38.168Z,99055.00
2022-11-23T12:33:35.604Z,99052.00
2022-11-23T12:36:24.334Z,99059.00
2022-11-23T12:38:57.407Z,99062.00
2022-11-23T12:41:34.293Z,99056.00
2022-11-23T12:44:34.839Z,99062.00
2022-11-23T12:47:12.547Z,99062.00
2022-11-23T12:49:46.597Z,99060.00
2022-11-23T12:52:32.099Z,99058.00
2022-11-23T12:55:16.484Z,99060.00
2022-11-23T12:57:55.604Z,99055.00
2022-11-23T13:00:29.168Z,99050.00
2022-11-23T13:03:41.448Z,99055.00
2022-11-23T13:06:59.244Z,99060.00
2022-11-23T13:09:56.456Z,99063.00
2022-11-23T13:12:52.124Z,99069.00
2022-11-23T13:15:36.629Z,99062.00
2022-11-23T13:18:15.998Z,99067.00
2022-11-23T13:21:08.561Z,99067.00
2022-11-23T13:23:39.643Z,99060.00
2022-11-23T13:26:15.882Z,99058.00
2022-11-23T13:28:45.937Z,99065.00
2022-11-23T13:31:31.121Z,99068.00
2022-11-23T13:34:03.816Z,99070.00
2022-11-23T13:37:15.136Z,99069.00
2022-11-23T13:40:06.581Z,99060.00
2022-11-23T13:42:36.681Z,99054.00
2022-11-23T13:45:29.039Z,99049.00
2022-11-23T13:48:54.885Z,99050.00
2022-11-23T13:51:11.592Z,99061.00
2022-11-23T13:53:43.032Z,99066.00
2022-11-23T13:56:33.684Z,99060.00
2022-11-23T13:59:28.513Z,99061.00
2022-11-23T14:02:32.374Z,99050.00
2022-11-23T14:05:37.137Z,99053.00
2022-11-23T14:08:08.202Z,99053.00
2022-11-23T14:10:37.158Z,99060.00
2022-11-23T14:13:10.545Z,99057.00
2022-11-23T14:15:42.257Z,99052.00
2022-11-23T14:18:43.989Z,99058.00
2022-11-23T14:21:22.264Z,99066.00
2022-11-23T14:24:32.106Z,99065.00
2022-11-23T14:27:45.801Z,99070.00
2022-11-23T14:30:18.228Z,99069.00
2022-11-23T14:33:07.081Z,99065.00
2022-11-23T14:35:48.370Z,99072.00
2022-11-23T14:38:56.115Z,99077.00
2022-11-23T14:41:29.956Z,99065.00
2022-11-23T14:44:01.799Z,99062.00
2022-11-23T14:46:33.862Z,99068.00
2022-11-23T14:49:07.675Z,99069.00
2022-11-23T14:51:40.895Z,99069.00
2022-11-23T14:54:13.520Z,99066.00
2022-11-23T14:56:50.463Z,99073.00
2022-11-23T16:22:50.621Z,99107.00
2022-11-23T16:25:26.163Z,99104.00
2022-11-23T16:27:58.206Z,99101.00
2022-11-23T16:30:27.615Z,99103.00
2022-11-23T16:32:54.826Z,99109.00
2022-11-23T16:35:40.580Z,99103.00
2022-11-23T16:38:13.191Z,99110.00
2022-11-23T16:45:49.942Z,99121.00
2022-11-23T16:48:39.737Z,99110.00
2022-11-23T16:51:10.554Z,99118.00
2022-11-23T16:54:11.408Z,99113.00
2022-11-23T16:56:27.990Z,99112.00
2022-11-23T16:58:56.301Z,99114.00
2022-11-23T17:01:26.775Z,99117.00
2022-11-23T17:09:04.707Z,99114.00
2022-11-23T17:11:50.073Z,99109.00
2022-11-23T17:14:21.318Z,99114.00
2022-11-23T17:16:53.488Z,99110.00
2022-11-23T17:19:27.852Z,99111.00
2022-11-23T17:21:57.520Z,99101.00
2022-11-23T17:24:26.244Z,99106.00
2022-11-23T17:26:56.333Z,99106.00
2022-11-23T17:29:25.008Z,99111.00
2022-11-23T17:31:53.712Z,99110.00
2022-11-23T17:34:22.429Z,99109.00
2022-11-23T17:36:53.281Z,99124.00
2022-11-23T17:39:24.274Z,99117.00
2022-11-23T17:41:53.020Z,99113.00
2022-11-23T17:44:22.944Z,99115.00
2022-11-23T17:47:01.451Z,99111.00
2022-11-23T17:49:30.937Z,99118.00
2022-11-23T17:52:00.850Z,99113.00
2022-11-23T17:54:29.490Z,99130.00
2022-11-23T17:56:58.801Z,99125.00
2022-11-23T17:59:28.867Z,99126.00
2022-11-23T18:01:57.899Z,99132.00
2022-11-23T18:04:26.568Z,99131.00
2022-11-23T18:06:56.700Z,99134.00
2022-11-23T18:09:25.328Z,99133.00
2022-11-23T18:11:54.258Z,99132.00
2022-11-23T18:14:24.183Z,99131.00
2022-11-23T18:16:54.192Z,99132.00
2022-11-23T18:19:22.863Z,99142.00
2022-11-23T18:21:51.596Z,99145.00
2022-11-23T18:24:20.232Z,99137.00
2022-11-23T18:26:48.883Z,99139.00
2022-11-23T18:29:17.635Z,99140.00
2022-11-23T18:31:46.411Z,99139.00
2022-11-23T18:34:16.446Z,99144.00
2022-11-23T18:36:45.108Z,99138.00
2022-11-23T18:39:14.033Z,99136.00
2022-11-23T18:41:42.723Z,99139.00
2022-11-23T18:44:11.496Z,99147.00
2022-11-23T18:46:41.187Z,99146.00
2022-11-23T18:49:09.891Z,99143.00
2022-11-23T18:51:39.991Z,99131.00
2022-11-23T18:54:08.653Z,99138.00
2022-11-23T18:56:39.813Z,99132.00
2022-11-23T18:59:12.769Z,99127.00
2022-11-23T19:01:48.181Z,99128.00
2022-11-23T19:04:18.055Z,99132.00
2022-11-23T19:06:48.555Z,99140.00
2022-11-23T19:09:20.277Z,99138.00
2022-11-23T19:11:49.535Z,99131.00
2022-11-23T19:14:18.388Z,99133.00
2022-11-23T19:16:48.361Z,99145.00
2022-11-23T19:19:18.629Z,99146.00
2022-11-23T19:21:51.765Z,99157.00
2022-11-23T19:24:22.672Z,99150.00
2022-11-23T19:26:51.636Z,99148.00
2022-11-23T19:29:23.761Z,99153.00
2022-11-23T19:31:55.159Z,99154.00
2022-11-23T19:34:24.568Z,99162.00
2022-11-23T19:36:58.020Z,99171.00
2022-11-23T19:39:29.419Z,99168.00
2022-11-23T19:41:58.698Z,99172.00
2022-11-23T19:44:27.882Z,99176.00
2022-11-23T19:46:56.870Z,99179.00
2022-11-23T19:49:25.608Z,99175.00
2022-11-23T19:51:56.387Z,99175.00
2022-11-23T19:54:25.184Z,99172.00
2022-11-23T19:56:54.010Z,99176.00
2022-11-23T19:59:22.778Z,99171.00
2022-11-23T20:01:51.444Z,99183.00
2022-11-23T20:04:20.178Z,99187.00
2022-11-23T20:06:49.146Z,99175.00
2022-11-23T20:09:21.125Z,99183.00
2022-11-23T20:11:51.575Z,99177.00
2022-11-23T20:14:20.662Z,99173.00
2022-11-23T20:16:49.307Z,99173.00
2022-11-23T20:19:18.097Z,99175.00
2022-11-23T20:21:47.013Z,99179.00
2022-11-23T20:24:16.092Z,99175.00
2022-11-23T20:26:46.322Z,99181.00
2022-11-23T20:29:15.126Z,99179.00
2022-11-23T20:31:43.809Z,99185.00
2022-11-23T20:34:16.910Z,99194.00
2022-11-23T20:36:49.209Z,99191.00
2022-11-23T20:39:18.109Z,99191.00
2022-11-23T20:41:49.827Z,99197.00
2022-11-23T20:44:18.899Z,99188.00
2022-11-23T20:47:03.890Z,99195.00
2022-11-23T20:49:32.950Z,99194.00
2022-11-23T20:52:01.933Z,99187.00
2022-11-23T20:54:30.746Z,99198.00
2022-11-23T20:57:00.888Z,99196.00
2022-11-23T20:59:30.005Z,99200.00
2022-11-23T21:01:58.741Z,99200.00
2022-11-23T21:04:27.871Z,99199.00
2022-11-23T21:06:56.635Z,99207.00
2022-11-23T21:09:25.315Z,99214.00
2022-11-23T21:12:11.821Z,99216.00
2022-11-23T21:14:41.866Z,99219.00
2022-11-23T21:17:12.713Z,99224.00
2022-11-23T21:19:41.878Z,99232.00
2022-11-23T21:22:12.890Z,99227.00
2022-11-23T21:24:42.089Z,99228.00
2022-11-23T21:27:14.180Z,99223.00
2022-11-23T21:29:47.422Z,99227.00
2022-11-23T21:32:15.976Z,99231.00
2022-11-23T21:34:44.525Z,99231.00
2022-11-23T21:37:13.564Z,99237.00
2022-11-23T21:39:43.195Z,99236.00
2022-11-23T21:42:14.256Z,99245.00
2022-11-23T21:44:44.229Z,99245.00
2022-11-23T21:47:13.081Z,99247.00
2022-11-23T21:49:41.861Z,99243.00
2022-11-23T21:52:10.496Z,99245.00
2022-11-23T21:54:40.016Z,99248.00
2022-11-23T21:57:10.845Z,99255.00
2022-11-23T21:59:39.445Z,99252.00
2022-11-23T22:02:12.815Z,99239.00
2022-11-23T22:04:41.619Z,99245.00
2022-11-23T22:07:10.531Z,99247.00
2022-11-23T22:09:39.334Z,99241.00
2022-11-23T22:12:08.338Z,99252.00
2022-11-23T22:14:37.106Z,99255.00
2022-11-23T22:17:05.854Z,99252.00
2022-11-23T22:19:35.978Z,99253.00
2022-11-23T22:22:06.429Z,99269.00
2022-11-23T22:24:35.488Z,99266.00
2022-11-23T22:27:04.542Z,99265.00
2022-11-23T22:29:33.293Z,99284.00
2022-11-23T22:32:02.096Z,99281.00
2022-11-23T22:34:33.403Z,99288.00
2022-11-23T22:37:08.875Z,99278.00
2022-11-23T22:39:39.424Z,99281.00
2022-11-23T22:42:08.436Z,99287.00
2022-11-23T22:44:37.227Z,99286.00
2022-11-23T22:47:06.088Z,99294.00
2022-11-23T22:49:34.838Z,99291.00
2022-11-23T22:52:05.171Z,99290.00
2022-11-23T22:54:34.284Z,99298.00
2022-11-23T22:57:03.297Z,99295.00
2022-11-23T22:59:32.081Z,99299.00
2022-11-23T23:02:00.868Z,99305.00
2022-11-23T23:04:29.637Z,99311.00
2022-11-23T23:06:58.391Z,99312.00
2022-11-23T23:09:28.563Z,99311.00
2022-11-23T23:11:57.344Z,99315.00
2022-11-23T23:14:26.165Z,99305.00
2022-11-23T23:16:55.004Z,99312.00
2022-11-23T23:19:23.806Z,99316.00
2022-11-23T23:21:52.559Z,99308.00
2022-11-23T23:24:23.452Z,99313.00
2022-11-23T23:26:55.817Z,99308.00
2022-11-23T23:29:27.177Z,99317.00
2022-11-23T23:31:57.711Z,99318.00
2022-11-23T23:34:29.723Z,99332.00
2022-11-23T23:37:01.383Z,99327.00
2022-11-23T23:39:30.245Z,99322.00
2022-11-23T23:42:00.505Z,99315.00
2022-11-23T23:44:29.755Z,99321.00
2022-11-23T23:46:58.566Z,99314.00
2022-11-23T23:49:31.420Z,99316.00
2022-11-23T23:52:00.553Z,99314.00
2022-11-23T23:54:29.404Z,99334.00
2022-11-23T23:56:59.751Z,99328.00
2022-11-23T23:59:28.624Z,99321.00
